sensor_id;sensor_type;location;lat;lon;timestamp;pressure;altitude;pressure_sealevel;temperature;humidity
61898;BME280;47850;50.274;18.908;2023-03-20T00:02:21;98049.85;;;7.28;54.24
61898;BME280;47850;50.274;18.908;2023-03-20T00:04:49;98050.39;;;7.26;54.14
61898;BME280;47850;50.274;18.908;2023-03-20T00:07:17;98048.92;;;7.26;54.39
61898;BME280;47850;50.274;18.908;2023-03-20T00:09:45;98049.63;;;7.26;54.38
61898;BME280;47850;50.274;18.908;2023-03-20T00:12:19;98048.08;;;7.27;54.60
61898;BME280;47850;50.274;18.908;2023-03-20T00:14:49;98047.59;;;7.28;54.59
61898;BME280;47850;50.274;18.908;2023-03-20T00:17:19;98049.54;;;7.28;54.65
61898;BME280;47850;50.274;18.908;2023-03-20T00:19:47;98049.23;;;7.30;54.48
61898;BME280;47850;50.274;18.908;2023-03-20T00:22:15;98046.42;;;7.29;54.77
61898;BME280;47850;50.274;18.908;2023-03-20T00:24:43;98048.45;;;7.28;54.77
61898;BME280;47850;50.274;18.908;2023-03-20T00:27:15;98044.24;;;7.27;54.91
61898;BME280;47850;50.274;18.908;2023-03-20T00:29:43;98045.89;;;7.26;54.76
61898;BME280;47850;50.274;18.908;2023-03-20T00:32:12;98044.73;;;7.24;54.75
61898;BME280;47850;50.274;18.908;2023-03-20T00:34:40;98045.25;;;7.22;54.91
61898;BME280;47850;50.274;18.908;2023-03-20T00:37:09;98042.85;;;7.19;55.09
61898;BME280;47850;50.274;18.908;2023-03-20T00:39:38;98046.73;;;7.18;55.28
61898;BME280;47850;50.274;18.908;2023-03-20T00:42:16;98045.16;;;7.18;55.15
61898;BME280;47850;50.274;18.908;2023-03-20T00:44:54;98040.27;;;7.19;55.13
61898;BME280;47850;50.274;18.908;2023-03-20T00:47:23;98040.90;;;7.19;55.12
61898;BME280;47850;50.274;18.908;2023-03-20T00:49:53;98036.95;;;7.19;55.26
61898;BME280;47850;50.274;18.908;2023-03-20T00:52:22;98037.14;;;7.22;55.13
61898;BME280;47850;50.274;18.908;2023-03-20T00:54:50;98032.79;;;7.23;55.08
61898;BME280;47850;50.274;18.908;2023-03-20T00:57:29;98033.80;;;7.24;55.08
61898;BME280;47850;50.274;18.908;2023-03-20T01:00:03;98035.56;;;7.27;55.00
61898;BME280;47850;50.274;18.908;2023-03-20T01:02:33;98034.02;;;7.28;54.93
61898;BME280;47850;50.274;18.908;2023-03-20T01:05:00;98033.13;;;7.29;55.03
61898;BME280;47850;50.274;18.908;2023-03-20T01:07:30;98029.70;;;7.30;55.00
61898;BME280;47850;50.274;18.908;2023-03-20T01:09:58;98027.38;;;7.30;55.09
61898;BME280;47850;50.274;18.908;2023-03-20T01:12:25;98024.83;;;7.30;55.01
61898;BME280;47850;50.274;18.908;2023-03-20T01:14:55;98018.48;;;7.30;54.94
61898;BME280;47850;50.274;18.908;2023-03-20T01:17:24;98020.99;;;7.31;54.93
61898;BME280;47850;50.274;18.908;2023-03-20T01:19:53;98019.66;;;7.30;54.93
61898;BME280;47850;50.274;18.908;2023-03-20T01:22:21;98017.55;;;7.32;55.05
61898;BME280;47850;50.274;18.908;2023-03-20T01:24:48;98019.90;;;7.34;54.83
61898;BME280;47850;50.274;18.908;2023-03-20T01:27:18;98014.39;;;7.36;54.83
61898;BME280;47850;50.274;18.908;2023-03-20T01:29:46;98016.94;;;7.39;54.66
61898;BME280;47850;50.274;18.908;2023-03-20T01:32:16;98018.33;;;7.40;54.71
61898;BME280;47850;50.274;18.908;2023-03-20T01:34:44;98019.39;;;7.41;54.67
61898;BME280;47850;50.274;18.908;2023-03-20T01:37:23;98018.64;;;7.43;54.66
61898;BME280;47850;50.274;18.908;2023-03-20T01:39:52;98022.84;;;7.44;54.55
61898;BME280;47850;50.274;18.908;2023-03-20T01:42:20;98024.02;;;7.45;54.43
61898;BME280;47850;50.274;18.908;2023-03-20T01:44:48;98022.94;;;7.45;54.53
61898;BME280;47850;50.274;18.908;2023-03-20T01:47:19;98027.54;;;7.45;54.51
61898;BME280;47850;50.274;18.908;2023-03-20T01:52:53;98031.98;;;7.44;54.58
61898;BME280;47850;50.274;18.908;2023-03-20T01:55:22;98030.02;;;7.44;54.68
61898;BME280;47850;50.274;18.908;2023-03-20T01:57:51;98031.34;;;7.43;54.68
61898;BME280;47850;50.274;18.908;2023-03-20T02:00:21;98033.30;;;7.44;54.75
61898;BME280;47850;50.274;18.908;2023-03-20T02:02:50;98029.23;;;7.45;54.66
61898;BME280;47850;50.274;18.908;2023-03-20T02:05:19;98034.79;;;7.44;54.82
61898;BME280;47850;50.274;18.908;2023-03-20T02:07:55;98039.85;;;7.44;54.81
61898;BME280;47850;50.274;18.908;2023-03-20T02:10:26;98041.73;;;7.42;54.80
61898;BME280;47850;50.274;18.908;2023-03-20T02:12:54;98041.80;;;7.41;54.89
61898;BME280;47850;50.274;18.908;2023-03-20T02:15:25;98041.48;;;7.40;55.02
61898;BME280;47850;50.274;18.908;2023-03-20T02:17:54;98041.93;;;7.39;55.11
61898;BME280;47850;50.274;18.908;2023-03-20T02:20:35;98044.03;;;7.38;55.13
61898;BME280;47850;50.274;18.908;2023-03-20T02:37:23;98040.27;;;7.29;55.53
61898;BME280;47850;50.274;18.908;2023-03-20T02:56:01;98033.35;;;7.14;56.06
61898;BME280;47850;50.274;18.908;2023-03-20T03:01:26;98031.20;;;7.13;56.16
61898;BME280;47850;50.274;18.908;2023-03-20T03:04:26;98027.59;;;7.13;55.98
61898;BME280;47850;50.274;18.908;2023-03-20T03:06:53;98028.41;;;7.12;56.09
61898;BME280;47850;50.274;18.908;2023-03-20T03:09:27;98027.77;;;7.11;56.16
61898;BME280;47850;50.274;18.908;2023-03-20T03:12:05;98029.13;;;7.11;56.29
61898;BME280;47850;50.274;18.908;2023-03-20T03:14:46;98029.75;;;7.10;56.34
61898;BME280;47850;50.274;18.908;2023-03-20T03:17:17;98029.48;;;7.09;56.33
61898;BME280;47850;50.274;18.908;2023-03-20T03:19:50;98029.79;;;7.08;56.53
61898;BME280;47850;50.274;18.908;2023-03-20T03:22:19;98029.96;;;7.07;56.61
61898;BME280;47850;50.274;18.908;2023-03-20T03:24:50;98030.36;;;7.06;56.61
61898;BME280;47850;50.274;18.908;2023-03-20T03:29:47;98026.79;;;7.00;56.83
61898;BME280;47850;50.274;18.908;2023-03-20T03:32:18;98028.47;;;6.97;56.98
61898;BME280;47850;50.274;18.908;2023-03-20T03:34:47;98031.02;;;6.94;57.12
61898;BME280;47850;50.274;18.908;2023-03-20T03:37:19;98031.10;;;6.92;57.06
61898;BME280;47850;50.274;18.908;2023-03-20T03:39:55;98029.02;;;6.90;57.26
61898;BME280;47850;50.274;18.908;2023-03-20T03:44:56;98026.98;;;6.87;57.15
61898;BME280;47850;50.274;18.908;2023-03-20T03:47:28;98027.16;;;6.85;57.34
61898;BME280;47850;50.274;18.908;2023-03-20T03:49:59;98029.73;;;6.82;57.37
61898;BME280;47850;50.274;18.908;2023-03-20T03:52:28;98022.77;;;6.81;57.36
61898;BME280;47850;50.274;18.908;2023-03-20T03:55:05;98025.19;;;6.80;57.39
61898;BME280;47850;50.274;18.908;2023-03-20T03:57:36;98025.23;;;6.78;57.59
61898;BME280;47850;50.274;18.908;2023-03-20T04:00:05;98024.55;;;6.76;57.70
61898;BME280;47850;50.274;18.908;2023-03-20T04:02:35;98026.52;;;6.74;57.98
61898;BME280;47850;50.274;18.908;2023-03-20T04:05:03;98025.47;;;6.73;57.97
61898;BME280;47850;50.274;18.908;2023-03-20T04:07:32;98027.27;;;6.72;57.98
61898;BME280;47850;50.274;18.908;2023-03-20T04:09:59;98031.75;;;6.70;58.06
61898;BME280;47850;50.274;18.908;2023-03-20T04:12:35;98028.80;;;6.69;58.18
61898;BME280;47850;50.274;18.908;2023-03-20T04:15:03;98028.00;;;6.67;58.38
61898;BME280;47850;50.274;18.908;2023-03-20T04:17:31;98029.15;;;6.67;58.28
61898;BME280;47850;50.274;18.908;2023-03-20T04:19:58;98028.13;;;6.67;58.30
61898;BME280;47850;50.274;18.908;2023-03-20T04:22:26;98031.88;;;6.66;58.43
61898;BME280;47850;50.274;18.908;2023-03-20T04:24:54;98034.74;;;6.66;58.55
61898;BME280;47850;50.274;18.908;2023-03-20T04:27:22;98035.07;;;6.66;58.72
61898;BME280;47850;50.274;18.908;2023-03-20T04:29:49;98035.29;;;6.66;58.82
61898;BME280;47850;50.274;18.908;2023-03-20T04:32:17;98030.23;;;6.64;58.56
61898;BME280;47850;50.274;18.908;2023-03-20T04:34:45;98031.77;;;6.62;58.71
61898;BME280;47850;50.274;18.908;2023-03-20T04:37:13;98032.92;;;6.59;58.71
61898;BME280;47850;50.274;18.908;2023-03-20T04:39:40;98031.20;;;6.54;58.93
61898;BME280;47850;50.274;18.908;2023-03-20T04:42:09;98034.29;;;6.50;59.07
61898;BME280;47850;50.274;18.908;2023-03-20T04:44:37;98039.46;;;6.46;59.16
61898;BME280;47850;50.274;18.908;2023-03-20T04:47:04;98039.63;;;6.42;59.37
61898;BME280;47850;50.274;18.908;2023-03-20T04:49:33;98041.20;;;6.39;59.55
61898;BME280;47850;50.274;18.908;2023-03-20T04:52:00;98042.73;;;6.36;59.81
61898;BME280;47850;50.274;18.908;2023-03-20T04:54:28;98044.63;;;6.34;60.00
61898;BME280;47850;50.274;18.908;2023-03-20T04:56:56;98047.37;;;6.32;60.37
61898;BME280;47850;50.274;18.908;2023-03-20T04:59:23;98047.94;;;6.30;60.43
61898;BME280;47850;50.274;18.908;2023-03-20T05:01:51;98050.35;;;6.28;60.48
61898;BME280;47850;50.274;18.908;2023-03-20T05:04:19;98048.17;;;6.25;60.44
61898;BME280;47850;50.274;18.908;2023-03-20T05:06:46;98051.19;;;6.22;60.43
61898;BME280;47850;50.274;18.908;2023-03-20T05:09:15;98049.46;;;6.22;60.43
61898;BME280;47850;50.274;18.908;2023-03-20T05:11:43;98054.87;;;6.23;60.56
61898;BME280;47850;50.274;18.908;2023-03-20T05:14:11;98052.68;;;6.24;60.51
61898;BME280;47850;50.274;18.908;2023-03-20T05:16:38;98052.39;;;6.26;60.48
61898;BME280;47850;50.274;18.908;2023-03-20T05:19:06;98055.43;;;6.29;60.48
61898;BME280;47850;50.274;18.908;2023-03-20T05:21:34;98055.98;;;6.32;60.37
61898;BME280;47850;50.274;18.908;2023-03-20T05:24:02;98056.02;;;6.37;60.45
61898;BME280;47850;50.274;18.908;2023-03-20T05:26:29;98055.81;;;6.43;60.29
61898;BME280;47850;50.274;18.908;2023-03-20T05:28:57;98054.21;;;6.48;60.14
61898;BME280;47850;50.274;18.908;2023-03-20T05:31:24;98057.20;;;6.54;60.14
61898;BME280;47850;50.274;18.908;2023-03-20T05:33:52;98057.02;;;6.59;60.04
61898;BME280;47850;50.274;18.908;2023-03-20T05:36:20;98058.14;;;6.64;60.02
61898;BME280;47850;50.274;18.908;2023-03-20T05:38:48;98058.46;;;6.70;60.12
61898;BME280;47850;50.274;18.908;2023-03-20T05:41:15;98059.22;;;6.77;60.21
61898;BME280;47850;50.274;18.908;2023-03-20T05:43:43;98056.05;;;6.85;60.15
61898;BME280;47850;50.274;18.908;2023-03-20T05:46:11;98054.98;;;6.94;59.89
61898;BME280;47850;50.274;18.908;2023-03-20T05:48:39;98056.36;;;7.01;59.88
61898;BME280;47850;50.274;18.908;2023-03-20T05:51:06;98058.98;;;7.09;59.84
61898;BME280;47850;50.274;18.908;2023-03-20T05:53:34;98059.13;;;7.17;59.76
61898;BME280;47850;50.274;18.908;2023-03-20T05:56:02;98060.07;;;7.24;59.76
61898;BME280;47850;50.274;18.908;2023-03-20T05:58:30;98059.11;;;7.29;59.88
61898;BME280;47850;50.274;18.908;2023-03-20T06:00:58;98060.33;;;7.34;59.77
61898;BME280;47850;50.274;18.908;2023-03-20T06:03:25;98059.36;;;7.36;59.54
61898;BME280;47850;50.274;18.908;2023-03-20T06:05:53;98063.56;;;7.38;59.59
61898;BME280;47850;50.274;18.908;2023-03-20T06:08:21;98069.53;;;7.38;59.43
61898;BME280;47850;50.274;18.908;2023-03-20T06:10:49;98067.24;;;7.36;59.31
61898;BME280;47850;50.274;18.908;2023-03-20T06:13:17;98068.98;;;7.32;59.51
61898;BME280;47850;50.274;18.908;2023-03-20T06:15:44;98074.55;;;7.31;59.63
61898;BME280;47850;50.274;18.908;2023-03-20T06:18:12;98076.38;;;7.31;59.75
61898;BME280;47850;50.274;18.908;2023-03-20T06:20:40;98076.66;;;7.33;59.68
61898;BME280;47850;50.274;18.908;2023-03-20T06:23:08;98080.23;;;7.37;59.68
61898;BME280;47850;50.274;18.908;2023-03-20T06:25:35;98086.14;;;7.40;59.52
61898;BME280;47850;50.274;18.908;2023-03-20T06:28:03;98091.88;;;7.44;59.73
61898;BME280;47850;50.274;18.908;2023-03-20T06:30:31;98094.77;;;7.47;59.53
61898;BME280;47850;50.274;18.908;2023-03-20T06:32:58;98094.08;;;7.48;59.66
61898;BME280;47850;50.274;18.908;2023-03-20T06:35:26;98097.52;;;7.50;59.41
61898;BME280;47850;50.274;18.908;2023-03-20T06:37:57;98097.78;;;7.54;59.51
61898;BME280;47850;50.274;18.908;2023-03-20T06:40:25;98102.77;;;7.60;59.57
61898;BME280;47850;50.274;18.908;2023-03-20T06:42:56;98108.38;;;7.64;59.49
61898;BME280;47850;50.274;18.908;2023-03-20T06:45:24;98106.62;;;7.70;59.54
61898;BME280;47850;50.274;18.908;2023-03-20T06:47:51;98110.83;;;7.77;59.57
61898;BME280;47850;50.274;18.908;2023-03-20T06:50:19;98115.79;;;7.81;59.61
61898;BME280;47850;50.274;18.908;2023-03-20T06:52:47;98111.39;;;7.85;59.83
61898;BME280;47850;50.274;18.908;2023-03-20T06:55:14;98115.55;;;7.83;60.28
61898;BME280;47850;50.274;18.908;2023-03-20T06:57:42;98116.88;;;7.82;60.63
61898;BME280;47850;50.274;18.908;2023-03-20T07:00:11;98124.58;;;7.79;61.19
61898;BME280;47850;50.274;18.908;2023-03-20T07:02:39;98121.52;;;7.78;61.61
61898;BME280;47850;50.274;18.908;2023-03-20T07:05:07;98121.98;;;7.77;62.47
61898;BME280;47850;50.274;18.908;2023-03-20T07:07:35;98119.48;;;7.76;62.45
61898;BME280;47850;50.274;18.908;2023-03-20T07:10:03;98121.44;;;7.76;62.75
61898;BME280;47850;50.274;18.908;2023-03-20T07:12:31;98121.71;;;7.75;63.22
61898;BME280;47850;50.274;18.908;2023-03-20T07:14:59;98126.53;;;7.74;63.65
61898;BME280;47850;50.274;18.908;2023-03-20T07:17:26;98129.95;;;7.71;64.00
61898;BME280;47850;50.274;18.908;2023-03-20T07:19:54;98133.27;;;7.71;64.35
61898;BME280;47850;50.274;18.908;2023-03-20T07:22:23;98131.94;;;7.72;64.92
61898;BME280;47850;50.274;18.908;2023-03-20T07:24:52;98134.45;;;7.74;65.43
61898;BME280;47850;50.274;18.908;2023-03-20T07:27:20;98134.00;;;7.77;65.25
61898;BME280;47850;50.274;18.908;2023-03-20T07:29:48;98134.59;;;7.81;65.40
61898;BME280;47850;50.274;18.908;2023-03-20T07:32:16;98132.84;;;7.84;65.18
61898;BME280;47850;50.274;18.908;2023-03-20T07:34:43;98130.77;;;7.91;65.78
61898;BME280;47850;50.274;18.908;2023-03-20T07:37:11;98136.27;;;7.98;65.66
61898;BME280;47850;50.274;18.908;2023-03-20T07:39:39;98140.28;;;8.04;66.24
61898;BME280;47850;50.274;18.908;2023-03-20T07:42:07;98141.41;;;8.09;66.27
61898;BME280;47850;50.274;18.908;2023-03-20T07:44:34;98140.04;;;8.15;66.48
61898;BME280;47850;50.274;18.908;2023-03-20T07:47:02;98142.89;;;8.25;66.66
61898;BME280;47850;50.274;18.908;2023-03-20T07:49:30;98141.20;;;8.32;66.65
61898;BME280;47850;50.274;18.908;2023-03-20T07:51:57;98143.55;;;8.37;67.06
61898;BME280;47850;50.274;18.908;2023-03-20T07:54:25;98145.23;;;8.42;67.17
61898;BME280;47850;50.274;18.908;2023-03-20T07:56:53;98143.85;;;8.54;67.36
61898;BME280;47850;50.274;18.908;2023-03-20T07:59:20;98144.46;;;8.70;67.46
61898;BME280;47850;50.274;18.908;2023-03-20T08:01:48;98143.45;;;8.91;67.36
61898;BME280;47850;50.274;18.908;2023-03-20T08:04:16;98140.36;;;9.17;67.23
61898;BME280;47850;50.274;18.908;2023-03-20T08:06:46;98145.14;;;9.43;66.87
61898;BME280;47850;50.274;18.908;2023-03-20T08:09:13;98140.42;;;9.67;67.15
61898;BME280;47850;50.274;18.908;2023-03-20T08:11:41;98139.38;;;9.89;67.64
61898;BME280;47850;50.274;18.908;2023-03-20T08:14:09;98137.51;;;10.05;68.17
61898;BME280;47850;50.274;18.908;2023-03-20T08:16:37;98138.98;;;10.20;68.25
61898;BME280;47850;50.274;18.908;2023-03-20T08:19:04;98136.17;;;10.35;68.36
61898;BME280;47850;50.274;18.908;2023-03-20T08:21:33;98134.27;;;10.48;68.28
61898;BME280;47850;50.274;18.908;2023-03-20T08:24:00;98135.18;;;10.61;68.38
61898;BME280;47850;50.274;18.908;2023-03-20T08:26:28;98137.82;;;10.66;68.33
61898;BME280;47850;50.274;18.908;2023-03-20T08:28:56;98137.43;;;10.71;68.23
61898;BME280;47850;50.274;18.908;2023-03-20T08:31:24;98132.39;;;10.77;67.92
61898;BME280;47850;50.274;18.908;2023-03-20T08:33:52;98134.98;;;10.88;67.85
61898;BME280;47850;50.274;18.908;2023-03-20T08:36:21;98139.38;;;11.03;67.44
61898;BME280;47850;50.274;18.908;2023-03-20T08:38:49;98136.84;;;11.17;66.99
61898;BME280;47850;50.274;18.908;2023-03-20T08:41:17;98142.91;;;11.31;66.82
61898;BME280;47850;50.274;18.908;2023-03-20T08:43:45;98143.09;;;11.38;66.67
61898;BME280;47850;50.274;18.908;2023-03-20T08:46:14;98144.47;;;11.40;66.72
61898;BME280;47850;50.274;18.908;2023-03-20T08:48:42;98146.92;;;11.47;66.66
61898;BME280;47850;50.274;18.908;2023-03-20T08:51:09;98145.66;;;11.58;66.49
61898;BME280;47850;50.274;18.908;2023-03-20T08:53:37;98149.64;;;11.63;65.90
61898;BME280;47850;50.274;18.908;2023-03-20T08:56:05;98145.02;;;11.59;66.04
61898;BME280;47850;50.274;18.908;2023-03-20T08:58:33;98147.56;;;11.47;66.71
61898;BME280;47850;50.274;18.908;2023-03-20T09:01:04;98144.23;;;11.42;67.27
61898;BME280;47850;50.274;18.908;2023-03-20T09:03:32;98147.65;;;11.40;67.47
61898;BME280;47850;50.274;18.908;2023-03-20T09:06:00;98145.71;;;11.41;68.79
61898;BME280;47850;50.274;18.908;2023-03-20T09:08:28;98151.23;;;11.46;69.23
61898;BME280;47850;50.274;18.908;2023-03-20T09:10:55;98149.25;;;11.51;69.17
61898;BME280;47850;50.274;18.908;2023-03-20T09:13:23;98150.91;;;11.55;69.84
61898;BME280;47850;50.274;18.908;2023-03-20T09:15:51;98149.32;;;11.63;70.22
61898;BME280;47850;50.274;18.908;2023-03-20T09:18:19;98154.48;;;11.64;70.37
61898;BME280;47850;50.274;18.908;2023-03-20T09:20:47;98158.59;;;11.59;70.64
61898;BME280;47850;50.274;18.908;2023-03-20T09:23:15;98150.46;;;11.64;70.53
61898;BME280;47850;50.274;18.908;2023-03-20T09:25:43;98150.63;;;11.73;70.71
61898;BME280;47850;50.274;18.908;2023-03-20T09:28:10;98150.95;;;11.71;70.54
61898;BME280;47850;50.274;18.908;2023-03-20T09:30:38;98147.52;;;11.78;71.19
61898;BME280;47850;50.274;18.908;2023-03-20T09:33:07;98149.48;;;11.85;70.54
61898;BME280;47850;50.274;18.908;2023-03-20T09:35:34;98150.60;;;11.81;70.62
61898;BME280;47850;50.274;18.908;2023-03-20T09:38:03;98149.58;;;11.85;70.36
61898;BME280;47850;50.274;18.908;2023-03-20T09:40:36;98154.96;;;11.91;70.51
61898;BME280;47850;50.274;18.908;2023-03-20T09:49:01;98155.09;;;11.52;71.74
61898;BME280;47850;50.274;18.908;2023-03-20T09:51:29;98157.21;;;11.38;72.64
61898;BME280;47850;50.274;18.908;2023-03-20T09:53:59;98155.39;;;11.24;73.09
61898;BME280;47850;50.274;18.908;2023-03-20T09:56:30;98148.11;;;11.23;73.19
61898;BME280;47850;50.274;18.908;2023-03-20T09:58:58;98152.48;;;11.36;73.22
61898;BME280;47850;50.274;18.908;2023-03-20T10:01:31;98153.13;;;11.46;72.98
61898;BME280;47850;50.274;18.908;2023-03-20T10:04:00;98155.60;;;11.58;72.95
61898;BME280;47850;50.274;18.908;2023-03-20T10:06:33;98153.25;;;11.68;72.51
61898;BME280;47850;50.274;18.908;2023-03-20T10:09:01;98150.02;;;11.77;72.41
61898;BME280;47850;50.274;18.908;2023-03-20T10:14:06;98154.94;;;11.87;72.03
61898;BME280;47850;50.274;18.908;2023-03-20T10:16:50;98151.73;;;11.80;71.88
61898;BME280;47850;50.274;18.908;2023-03-20T10:19:26;98147.68;;;11.79;72.15
61898;BME280;47850;50.274;18.908;2023-03-20T10:24:27;98145.19;;;11.81;72.00
61898;BME280;47850;50.274;18.908;2023-03-20T10:26:57;98146.70;;;11.89;71.89
61898;BME280;47850;50.274;18.908;2023-03-20T10:37:17;98148.36;;;12.52;70.16
61898;BME280;47850;50.274;18.908;2023-03-20T10:42:28;98135.51;;;13.38;67.96
61898;BME280;47850;50.274;18.908;2023-03-20T10:45:00;98139.73;;;13.72;67.01
61898;BME280;47850;50.274;18.908;2023-03-20T10:47:29;98137.84;;;14.04;65.64
61898;BME280;47850;50.274;18.908;2023-03-20T10:50:04;98134.52;;;14.41;64.03
61898;BME280;47850;50.274;18.908;2023-03-20T10:52:34;98129.66;;;14.70;62.58
61898;BME280;47850;50.274;18.908;2023-03-20T10:57:32;98135.45;;;14.86;60.30
61898;BME280;47850;50.274;18.908;2023-03-20T11:00:02;98133.69;;;14.79;60.73
61898;BME280;47850;50.274;18.908;2023-03-20T11:02:31;98129.58;;;14.67;60.24
61898;BME280;47850;50.274;18.908;2023-03-20T11:04:59;98130.08;;;14.50;60.93
61898;BME280;47850;50.274;18.908;2023-03-20T11:07:32;98125.55;;;14.45;60.88
61898;BME280;47850;50.274;18.908;2023-03-20T11:12:34;98123.27;;;14.48;60.55
61898;BME280;47850;50.274;18.908;2023-03-20T11:15:04;98127.16;;;14.55;60.47
61898;BME280;47850;50.274;18.908;2023-03-20T11:17:40;98123.74;;;14.77;59.72
61898;BME280;47850;50.274;18.908;2023-03-20T11:20:09;98118.05;;;15.12;58.91
61898;BME280;47850;50.274;18.908;2023-03-20T11:22:38;98115.50;;;15.56;57.66
61898;BME280;47850;50.274;18.908;2023-03-20T11:25:19;98115.13;;;15.73;56.18
61898;BME280;47850;50.274;18.908;2023-03-20T11:27:49;98113.69;;;15.78;56.29
61898;BME280;47850;50.274;18.908;2023-03-20T11:30:17;98110.92;;;15.86;55.95
61898;BME280;47850;50.274;18.908;2023-03-20T11:32:48;98107.39;;;15.96;55.75
61898;BME280;47850;50.274;18.908;2023-03-20T11:35:28;98108.39;;;16.12;55.18
61898;BME280;47850;50.274;18.908;2023-03-20T11:38:17;98109.15;;;16.15;54.24
61898;BME280;47850;50.274;18.908;2023-03-20T11:40:46;98102.59;;;16.17;54.19
61898;BME280;47850;50.274;18.908;2023-03-20T11:43:19;98109.64;;;16.02;54.18
61898;BME280;47850;50.274;18.908;2023-03-20T11:45:58;98101.83;;;15.81;54.19
61898;BME280;47850;50.274;18.908;2023-03-20T11:48:37;98102.25;;;15.64;54.66
61898;BME280;47850;50.274;18.908;2023-03-20T11:51:05;98096.88;;;15.62;54.88
61898;BME280;47850;50.274;18.908;2023-03-20T11:53:41;98097.85;;;15.56;54.98
61898;BME280;47850;50.274;18.908;2023-03-20T11:56:27;98092.63;;;15.39;55.37
61898;BME280;47850;50.274;18.908;2023-03-20T11:58:56;98095.05;;;15.27;55.85
61898;BME280;47850;50.274;18.908;2023-03-20T12:01:25;98092.74;;;15.14;55.93
61898;BME280;47850;50.274;18.908;2023-03-20T12:06:25;98083.86;;;14.62;57.33
61898;BME280;47850;50.274;18.908;2023-03-20T12:08:58;98088.07;;;14.39;57.93
61898;BME280;47850;50.274;18.908;2023-03-20T12:14:11;98085.60;;;13.91;59.22
61898;BME280;47850;50.274;18.908;2023-03-20T12:16:42;98084.13;;;13.77;59.91
61898;BME280;47850;50.274;18.908;2023-03-20T12:19:12;98081.65;;;13.76;60.72
61898;BME280;47850;50.274;18.908;2023-03-20T12:21:45;98085.16;;;13.73;60.99
61898;BME280;47850;50.274;18.908;2023-03-20T12:29:39;98075.43;;;13.74;61.82
61898;BME280;47850;50.274;18.908;2023-03-20T12:32:23;98080.23;;;13.83;61.61
61898;BME280;47850;50.274;18.908;2023-03-20T12:35:01;98076.71;;;13.80;61.80
61898;BME280;47850;50.274;18.908;2023-03-20T12:37:31;98078.88;;;13.79;61.67
61898;BME280;47850;50.274;18.908;2023-03-20T12:40:01;98079.95;;;13.76;61.96
61898;BME280;47850;50.274;18.908;2023-03-20T12:45:08;98076.39;;;13.78;62.22
61898;BME280;47850;50.274;18.908;2023-03-20T12:52:41;98069.52;;;13.86;61.93
61898;BME280;47850;50.274;18.908;2023-03-20T12:55:26;98069.66;;;13.98;61.70
61898;BME280;47850;50.274;18.908;2023-03-20T13:00:34;98074.34;;;14.05;61.08
61898;BME280;47850;50.274;18.908;2023-03-20T13:06:01;98073.73;;;14.10;61.21
61898;BME280;47850;50.274;18.908;2023-03-20T13:09:12;98072.83;;;14.04;61.37
61898;BME280;47850;50.274;18.908;2023-03-20T13:14:05;98071.20;;;13.77;62.55
61898;BME280;47850;50.274;18.908;2023-03-20T13:19:06;98071.09;;;13.56;63.40
61898;BME280;47850;50.274;18.908;2023-03-20T13:22:00;98066.29;;;13.43;63.84
61898;BME280;47850;50.274;18.908;2023-03-20T13:24:40;98066.96;;;13.32;64.43
61898;BME280;47850;50.274;18.908;2023-03-20T13:27:14;98059.92;;;13.24;64.73
61898;BME280;47850;50.274;18.908;2023-03-20T13:37:51;98054.48;;;13.14;65.09
61898;BME280;47850;50.274;18.908;2023-03-20T13:40:27;98056.46;;;13.21;65.26
61898;BME280;47850;50.274;18.908;2023-03-20T13:45:39;98056.63;;;13.27;65.38
61898;BME280;47850;50.274;18.908;2023-03-20T13:48:51;98054.17;;;13.18;65.65
61898;BME280;47850;50.274;18.908;2023-03-20T13:56:35;98052.13;;;13.06;66.19
61898;BME280;47850;50.274;18.908;2023-03-20T14:04:22;98048.20;;;13.08;66.49
61898;BME280;47850;50.274;18.908;2023-03-20T14:06:52;98047.26;;;13.06;66.47
61898;BME280;47850;50.274;18.908;2023-03-20T14:09:24;98046.23;;;13.03;66.38
61898;BME280;47850;50.274;18.908;2023-03-20T14:11:53;98050.27;;;13.00;66.67
61898;BME280;47850;50.274;18.908;2023-03-20T14:14:24;98051.05;;;12.96;66.86
61898;BME280;47850;50.274;18.908;2023-03-20T14:17:06;98050.67;;;12.89;67.17
61898;BME280;47850;50.274;18.908;2023-03-20T14:19:36;98052.90;;;12.81;67.36
61898;BME280;47850;50.274;18.908;2023-03-20T14:22:04;98050.39;;;12.72;67.70
61898;BME280;47850;50.274;18.908;2023-03-20T14:24:34;98053.35;;;12.63;67.84
61898;BME280;47850;50.274;18.908;2023-03-20T14:27:02;98054.73;;;12.54;68.16
61898;BME280;47850;50.274;18.908;2023-03-20T14:29:33;98056.62;;;12.41;68.74
61898;BME280;47850;50.274;18.908;2023-03-20T14:32:20;98055.98;;;12.30;69.58
61898;BME280;47850;50.274;18.908;2023-03-20T14:34:52;98057.51;;;12.22;70.35
61898;BME280;47850;50.274;18.908;2023-03-20T14:37:26;98062.83;;;12.12;71.06
61898;BME280;47850;50.274;18.908;2023-03-20T14:45:19;98062.50;;;11.92;72.58
61898;BME280;47850;50.274;18.908;2023-03-20T14:48:27;98054.75;;;11.87;72.99
61898;BME280;47850;50.274;18.908;2023-03-20T15:01:02;98041.77;;;11.79;75.25
61898;BME280;47850;50.274;18.908;2023-03-20T15:03:30;98037.02;;;11.77;75.23
61898;BME280;47850;50.274;18.908;2023-03-20T15:05:59;98034.48;;;11.77;75.56
61898;BME280;47850;50.274;18.908;2023-03-20T15:08:29;98035.33;;;11.76;75.98
61898;BME280;47850;50.274;18.908;2023-03-20T15:10:58;98034.33;;;11.76;76.04
61898;BME280;47850;50.274;18.908;2023-03-20T15:13:30;98033.65;;;11.77;75.77
61898;BME280;47850;50.274;18.908;2023-03-20T15:16:08;98031.55;;;11.79;75.90
61898;BME280;47850;50.274;18.908;2023-03-20T15:21:10;98029.58;;;11.83;76.36
61898;BME280;47850;50.274;18.908;2023-03-20T15:23:42;98025.06;;;11.83;76.14
61898;BME280;47850;50.274;18.908;2023-03-20T15:26:12;98029.41;;;11.82;76.37
61898;BME280;47850;50.274;18.908;2023-03-20T15:28:41;98031.31;;;11.81;76.14